Terminal Aerodrome Forecast
Issued by NWS Cleveland, OH

Home | Current Version | Previous Version | Text Only | Print | Product List | Glossary Off
Versions: 1 2 3 4 5 6 7 8 9 10 11 12 13 14 15 16 17 18 19 20 21 22 23

000
FTUS41 KCLE 211558 AAC
TAFCLE
TAF AMD
KCLE 211558Z 2116/2218 26004KT 3SM BR OVC008
     FM211700 27006KT 3SM BR OVC012
     FM211900 28012KT P6SM SCT012
     FM220000 32014G22KT P6SM SCT025 OVC035
     FM220400 34014G22KT P6SM SCT015 OVC025=

USA.gov is the U.S. government's official web portal to all federal, state and local government web resources and services.